Bay Shore, New York
Current Conditions -  °F | °C
As of 2:53 AM on Friday 19 Dec 2014 (Local Time) from KFRG Reporting Station
Overcast Overcast  
Wind Chill: 33°   Ceiling: 5500
Heat Index: 37°   Visibility: 10mi
Dew Point: 26°   Wind: 5mph
Humidity: 65%   Direction: 310°NW
Pressure: 29.96"   Gusts: NA
Location:  40.72°N, 73.25°W
Report Text: KFRG 190753Z AUTO 31004KT 10SM OVC055 03/M03 A2996 RMK AO2 SLP147 T00281033
Loading
Personal Weather Stations






























Interactive Weather Map New forecast layout! Learn more

10-Day Weather Forecast

Advertisements
Track Severe Weather on mobile